首页
METAR-TAF:

METAR-TAF

机场 :

西雅圖-塔科馬國際機場

西雅圖 / 塔科马, 华盛顿, 美国

纬度: 47-26-41N, 经度: 122-18-49W, 海拔: 130米

当前天气观测

该预报发布于43分钟前的11:53 UTC
风速3节,风向
温度 13°C
湿度 88%
气压 1024 hPa
能見度: 16.1公里
天空无云

METAR: KSEA 181153Z 19003KT 10SM CLR 13/11 A3023 RMK AO2 SLP242 T01330111 10183 20128 53002

时间: 05:36 (12:36 UTC)

预报

该预报发布于54分钟前的11:42 UTC
预报有效从18日的 12点(UTC)到 19日的 18点(UTC)
风速3节,风向多变
能見度: 10公里
天空无云
从 18日的 1400点(UTC)
风速3节,风向多变
能見度: 10公里
少量云层高于1200英尺
从 18日的 1600点(UTC)
风速3节,风向多变
能見度: 10公里
天空无云
从 18日的 1800点(UTC)
风速7节,风向西北
能見度: 10公里
天空无云
从 19日的 0300点(UTC)
风速5节,风向
能見度: 10公里
天空无云
从 19日的 1200点(UTC)
风速3节,风向多变
能見度: 10公里
散云层高于1500英尺

TAF: KSEA 181142Z 1812/1918 VRB03KT P6SM SKC FM181400 VRB03KT P6SM FEW012 FM181600 VRB03KT P6SM SKC FM181800 32007KT P6SM SKC FM190300 36005KT P6SM SKC FM191200 VRB03KT P6SM SCT015

超过4000个机场的气象观测和天气预报(METAR&TAF报告)。

可查询的气象台以黄色和红色小点在地图上表示。

将鼠标移到小点上方,可查看气象台名称。

然后点击查看天气观测和预报。

如需切换地图:点击带黑十字的绿色按钮放大地图;点击带横线的绿色按钮缩小地图;或者点击绿色箭头查看邻近地区的地图。


METAR-TAF: